sensor_id;sensor_type;location;lat;lon;timestamp;P1;durP1;ratioP1;P2;durP2;ratioP2
9288;SDS011;4683;50.864;12.086;2023-09-08T00:02:07;8.60;;;7.70;;
9288;SDS011;4683;50.864;12.086;2023-09-08T00:04:37;8.20;;;7.50;;
9288;SDS011;4683;50.864;12.086;2023-09-08T00:07:10;7.50;;;6.80;;
9288;SDS011;4683;50.864;12.086;2023-09-08T00:09:43;8.10;;;7.30;;
9288;SDS011;4683;50.864;12.086;2023-09-08T00:12:11;8.17;;;7.40;;
9288;SDS011;4683;50.864;12.086;2023-09-08T00:14:47;7.70;;;6.83;;
9288;SDS011;4683;50.864;12.086;2023-09-08T00:17:22;7.70;;;7.00;;
9288;SDS011;4683;50.864;12.086;2023-09-08T00:19:58;8.30;;;7.60;;
9288;SDS011;4683;50.864;12.086;2023-09-08T00:22:32;8.70;;;7.67;;
9288;SDS011;4683;50.864;12.086;2023-09-08T00:25:01;10.07;;;7.83;;
9288;SDS011;4683;50.864;12.086;2023-09-08T00:27:30;7.60;;;6.90;;
9288;SDS011;4683;50.864;12.086;2023-09-08T00:30:01;8.90;;;7.20;;
9288;SDS011;4683;50.864;12.086;2023-09-08T00:32:41;8.10;;;7.40;;
9288;SDS011;4683;50.864;12.086;2023-09-08T00:35:17;7.93;;;7.13;;
9288;SDS011;4683;50.864;12.086;2023-09-08T00:37:51;8.03;;;7.23;;
9288;SDS011;4683;50.864;12.086;2023-09-08T00:40:26;7.87;;;7.07;;
9288;SDS011;4683;50.864;12.086;2023-09-08T00:43:01;7.23;;;6.53;;
9288;SDS011;4683;50.864;12.086;2023-09-08T00:45:40;7.77;;;7.07;;
9288;SDS011;4683;50.864;12.086;2023-09-08T00:48:15;9.50;;;7.03;;
9288;SDS011;4683;50.864;12.086;2023-09-08T00:54:41;8.70;;;6.90;;
9288;SDS011;4683;50.864;12.086;2023-09-08T00:57:13;7.70;;;7.10;;
9288;SDS011;4683;50.864;12.086;2023-09-08T00:59:48;7.83;;;7.03;;
9288;SDS011;4683;50.864;12.086;2023-09-08T01:02:22;8.40;;;7.50;;
9288;SDS011;4683;50.864;12.086;2023-09-08T01:04:54;7.57;;;6.77;;
9288;SDS011;4683;50.864;12.086;2023-09-08T01:07:29;9.20;;;7.53;;
9288;SDS011;4683;50.864;12.086;2023-09-08T01:10:09;8.53;;;7.57;;
9288;SDS011;4683;50.864;12.086;2023-09-08T01:12:47;8.47;;;7.67;;
9288;SDS011;4683;50.864;12.086;2023-09-08T01:15:16;7.97;;;7.17;;
9288;SDS011;4683;50.864;12.086;2023-09-08T01:17:48;7.97;;;7.27;;
9288;SDS011;4683;50.864;12.086;2023-09-08T01:20:23;8.83;;;7.97;;
9288;SDS011;4683;50.864;12.086;2023-09-08T01:23:09;8.77;;;7.97;;
9288;SDS011;4683;50.864;12.086;2023-09-08T01:25:50;8.53;;;7.63;;
9288;SDS011;4683;50.864;12.086;2023-09-08T01:28:24;10.53;;;7.60;;
9288;SDS011;4683;50.864;12.086;2023-09-08T01:30:56;8.10;;;7.40;;
9288;SDS011;4683;50.864;12.086;2023-09-08T01:33:29;9.07;;;8.27;;
9288;SDS011;4683;50.864;12.086;2023-09-08T01:35:58;9.03;;;8.00;;
9288;SDS011;4683;50.864;12.086;2023-09-08T01:38:27;8.47;;;7.77;;
9288;SDS011;4683;50.864;12.086;2023-09-08T01:40:57;8.77;;;7.97;;
9288;SDS011;4683;50.864;12.086;2023-09-08T01:43:45;8.93;;;8.03;;
9288;SDS011;4683;50.864;12.086;2023-09-08T01:46:17;8.57;;;7.77;;
9288;SDS011;4683;50.864;12.086;2023-09-08T01:48:45;8.90;;;8.00;;
9288;SDS011;4683;50.864;12.086;2023-09-08T01:51:18;12.00;;;8.97;;
9288;SDS011;4683;50.864;12.086;2023-09-08T01:53:56;8.47;;;7.60;;
9288;SDS011;4683;50.864;12.086;2023-09-08T01:56:26;8.93;;;8.13;;
9288;SDS011;4683;50.864;12.086;2023-09-08T01:59:03;9.27;;;8.37;;
9288;SDS011;4683;50.864;12.086;2023-09-08T02:01:35;9.27;;;8.33;;
9288;SDS011;4683;50.864;12.086;2023-09-08T02:04:13;9.33;;;8.43;;
9288;SDS011;4683;50.864;12.086;2023-09-08T02:06:47;9.33;;;8.43;;
9288;SDS011;4683;50.864;12.086;2023-09-08T02:09:20;8.57;;;7.90;;
9288;SDS011;4683;50.864;12.086;2023-09-08T02:12:08;8.70;;;7.90;;
9288;SDS011;4683;50.864;12.086;2023-09-08T02:14:37;8.47;;;7.50;;
9288;SDS011;4683;50.864;12.086;2023-09-08T02:17:05;8.73;;;7.93;;
9288;SDS011;4683;50.864;12.086;2023-09-08T02:19:33;8.70;;;7.90;;
9288;SDS011;4683;50.864;12.086;2023-09-08T02:22:01;8.97;;;8.10;;
9288;SDS011;4683;50.864;12.086;2023-09-08T02:24:46;10.37;;;7.57;;
9288;SDS011;4683;50.864;12.086;2023-09-08T02:27:22;9.70;;;8.63;;
9288;SDS011;4683;50.864;12.086;2023-09-08T02:29:50;10.27;;;8.53;;
9288;SDS011;4683;50.864;12.086;2023-09-08T02:32:19;9.60;;;8.70;;
9288;SDS011;4683;50.864;12.086;2023-09-08T02:34:47;9.90;;;9.00;;
9288;SDS011;4683;50.864;12.086;2023-09-08T02:37:16;11.23;;;8.90;;
9288;SDS011;4683;50.864;12.086;2023-09-08T02:39:49;9.77;;;8.77;;
9288;SDS011;4683;50.864;12.086;2023-09-08T02:42:18;11.23;;;9.83;;
9288;SDS011;4683;50.864;12.086;2023-09-08T02:44:51;9.73;;;8.83;;
9288;SDS011;4683;50.864;12.086;2023-09-08T02:47:21;9.37;;;8.47;;
9288;SDS011;4683;50.864;12.086;2023-09-08T02:50:08;10.53;;;9.43;;
9288;SDS011;4683;50.864;12.086;2023-09-08T02:52:37;9.47;;;8.50;;
9288;SDS011;4683;50.864;12.086;2023-09-08T02:55:06;10.60;;;9.53;;
9288;SDS011;4683;50.864;12.086;2023-09-08T02:57:53;11.13;;;10.13;;
9288;SDS011;4683;50.864;12.086;2023-09-08T03:00:26;9.30;;;8.57;;
9288;SDS011;4683;50.864;12.086;2023-09-08T03:02:55;8.83;;;8.03;;
9288;SDS011;4683;50.864;12.086;2023-09-08T03:05:46;9.40;;;8.50;;
9288;SDS011;4683;50.864;12.086;2023-09-08T03:08:22;9.63;;;8.73;;
9288;SDS011;4683;50.864;12.086;2023-09-08T03:10:54;10.40;;;9.40;;
9288;SDS011;4683;50.864;12.086;2023-09-08T03:13:24;8.80;;;8.03;;
9288;SDS011;4683;50.864;12.086;2023-09-08T03:15:55;9.80;;;8.80;;
9288;SDS011;4683;50.864;12.086;2023-09-08T03:18:28;9.37;;;8.57;;
9288;SDS011;4683;50.864;12.086;2023-09-08T03:21:04;8.93;;;8.03;;
9288;SDS011;4683;50.864;12.086;2023-09-08T03:23:40;9.60;;;8.70;;
9288;SDS011;4683;50.864;12.086;2023-09-08T03:26:11;10.23;;;9.23;;
9288;SDS011;4683;50.864;12.086;2023-09-08T03:28:41;10.07;;;8.90;;
9288;SDS011;4683;50.864;12.086;2023-09-08T03:31:13;10.27;;;9.27;;
9288;SDS011;4683;50.864;12.086;2023-09-08T03:33:43;9.70;;;8.80;;
9288;SDS011;4683;50.864;12.086;2023-09-08T03:36:16;10.07;;;9.07;;
9288;SDS011;4683;50.864;12.086;2023-09-08T03:38:49;9.53;;;8.57;;
9288;SDS011;4683;50.864;12.086;2023-09-08T03:41:24;9.30;;;8.30;;
9288;SDS011;4683;50.864;12.086;2023-09-08T03:44:00;10.23;;;9.20;;
9288;SDS011;4683;50.864;12.086;2023-09-08T03:46:30;9.80;;;8.77;;
9288;SDS011;4683;50.864;12.086;2023-09-08T03:49:04;9.97;;;9.00;;
9288;SDS011;4683;50.864;12.086;2023-09-08T03:51:54;9.37;;;8.47;;
9288;SDS011;4683;50.864;12.086;2023-09-08T03:54:33;10.67;;;9.37;;
9288;SDS011;4683;50.864;12.086;2023-09-08T03:57:13;9.90;;;8.53;;
9288;SDS011;4683;50.864;12.086;2023-09-08T03:59:41;9.13;;;8.33;;
9288;SDS011;4683;50.864;12.086;2023-09-08T04:02:11;10.03;;;8.13;;
9288;SDS011;4683;50.864;12.086;2023-09-08T04:04:39;9.40;;;8.43;;
9288;SDS011;4683;50.864;12.086;2023-09-08T04:07:07;9.43;;;8.53;;
9288;SDS011;4683;50.864;12.086;2023-09-08T04:09:54;10.73;;;9.73;;
9288;SDS011;4683;50.864;12.086;2023-09-08T04:12:27;9.30;;;8.40;;
9288;SDS011;4683;50.864;12.086;2023-09-08T04:14:55;8.83;;;8.03;;
9288;SDS011;4683;50.864;12.086;2023-09-08T04:17:26;9.47;;;8.43;;
9288;SDS011;4683;50.864;12.086;2023-09-08T04:20:08;9.07;;;8.23;;
9288;SDS011;4683;50.864;12.086;2023-09-08T04:22:45;10.07;;;9.10;;
9288;SDS011;4683;50.864;12.086;2023-09-08T04:25:14;9.83;;;8.50;;
9288;SDS011;4683;50.864;12.086;2023-09-08T04:27:45;8.30;;;7.47;;
9288;SDS011;4683;50.864;12.086;2023-09-08T04:30:17;10.03;;;9.03;;
9288;SDS011;4683;50.864;12.086;2023-09-08T04:32:53;10.60;;;9.60;;
9288;SDS011;4683;50.864;12.086;2023-09-08T04:35:28;9.77;;;8.80;;
9288;SDS011;4683;50.864;12.086;2023-09-08T04:37:57;9.80;;;8.83;;
9288;SDS011;4683;50.864;12.086;2023-09-08T04:40:26;9.90;;;8.73;;
9288;SDS011;4683;50.864;12.086;2023-09-08T04:42:55;8.97;;;8.17;;
9288;SDS011;4683;50.864;12.086;2023-09-08T04:45:27;10.03;;;9.00;;
9288;SDS011;4683;50.864;12.086;2023-09-08T04:48:15;9.30;;;8.50;;
9288;SDS011;4683;50.864;12.086;2023-09-08T04:50:43;9.13;;;8.23;;
9288;SDS011;4683;50.864;12.086;2023-09-08T04:53:19;9.27;;;8.37;;
9288;SDS011;4683;50.864;12.086;2023-09-08T04:55:47;9.77;;;8.87;;
9288;SDS011;4683;50.864;12.086;2023-09-08T04:58:16;10.27;;;9.27;;
9288;SDS011;4683;50.864;12.086;2023-09-08T05:00:44;9.70;;;8.80;;
9288;SDS011;4683;50.864;12.086;2023-09-08T05:03:18;9.10;;;8.30;;
9288;SDS011;4683;50.864;12.086;2023-09-08T05:05:51;9.57;;;8.57;;
9288;SDS011;4683;50.864;12.086;2023-09-08T05:08:20;9.20;;;8.30;;
9288;SDS011;4683;50.864;12.086;2023-09-08T05:10:59;9.50;;;8.47;;
9288;SDS011;4683;50.864;12.086;2023-09-08T05:13:28;9.30;;;8.30;;
9288;SDS011;4683;50.864;12.086;2023-09-08T05:15:58;9.20;;;8.20;;
9288;SDS011;4683;50.864;12.086;2023-09-08T05:18:38;10.27;;;9.37;;
9288;SDS011;4683;50.864;12.086;2023-09-08T05:21:09;10.53;;;9.00;;
9288;SDS011;4683;50.864;12.086;2023-09-08T05:23:41;11.27;;;8.57;;
9288;SDS011;4683;50.864;12.086;2023-09-08T05:26:10;10.00;;;9.03;;
9288;SDS011;4683;50.864;12.086;2023-09-08T05:28:38;9.33;;;8.30;;
9288;SDS011;4683;50.864;12.086;2023-09-08T05:31:12;9.23;;;8.43;;
9288;SDS011;4683;50.864;12.086;2023-09-08T05:33:42;10.57;;;9.40;;
9288;SDS011;4683;50.864;12.086;2023-09-08T05:36:11;10.23;;;9.40;;
9288;SDS011;4683;50.864;12.086;2023-09-08T05:38:40;9.80;;;8.87;;
9288;SDS011;4683;50.864;12.086;2023-09-08T05:41:23;11.17;;;9.80;;
9288;SDS011;4683;50.864;12.086;2023-09-08T05:44:06;11.33;;;10.30;;
9288;SDS011;4683;50.864;12.086;2023-09-08T05:46:36;9.77;;;8.73;;
9288;SDS011;4683;50.864;12.086;2023-09-08T05:49:11;10.57;;;8.93;;
9288;SDS011;4683;50.864;12.086;2023-09-08T05:51:44;10.30;;;9.27;;
9288;SDS011;4683;50.864;12.086;2023-09-08T05:54:28;9.33;;;8.53;;
9288;SDS011;4683;50.864;12.086;2023-09-08T05:56:57;11.20;;;9.17;;
9288;SDS011;4683;50.864;12.086;2023-09-08T05:59:29;10.87;;;9.80;;
9288;SDS011;4683;50.864;12.086;2023-09-08T06:01:58;11.23;;;10.03;;
9288;SDS011;4683;50.864;12.086;2023-09-08T06:04:46;11.47;;;10.27;;
9288;SDS011;4683;50.864;12.086;2023-09-08T06:07:16;12.87;;;10.00;;
9288;SDS011;4683;50.864;12.086;2023-09-08T06:09:45;11.07;;;9.97;;
9288;SDS011;4683;50.864;12.086;2023-09-08T06:12:17;10.73;;;9.53;;
9288;SDS011;4683;50.864;12.086;2023-09-08T06:14:49;10.43;;;9.27;;
9288;SDS011;4683;50.864;12.086;2023-09-08T06:17:21;11.23;;;9.20;;
9288;SDS011;4683;50.864;12.086;2023-09-08T06:19:55;10.60;;;9.60;;
9288;SDS011;4683;50.864;12.086;2023-09-08T06:22:24;11.00;;;9.93;;
9288;SDS011;4683;50.864;12.086;2023-09-08T06:24:56;10.33;;;9.33;;
9288;SDS011;4683;50.864;12.086;2023-09-08T06:27:25;11.73;;;9.57;;
9288;SDS011;4683;50.864;12.086;2023-09-08T06:29:55;12.77;;;9.90;;
9288;SDS011;4683;50.864;12.086;2023-09-08T06:32:24;10.50;;;9.50;;
9288;SDS011;4683;50.864;12.086;2023-09-08T06:34:58;11.27;;;9.33;;
9288;SDS011;4683;50.864;12.086;2023-09-08T06:37:35;11.17;;;9.30;;
9288;SDS011;4683;50.864;12.086;2023-09-08T06:40:05;12.20;;;11.03;;
9288;SDS011;4683;50.864;12.086;2023-09-08T06:42:35;12.40;;;10.50;;
9288;SDS011;4683;50.864;12.086;2023-09-08T06:45:05;11.57;;;10.10;;
9288;SDS011;4683;50.864;12.086;2023-09-08T06:47:37;11.93;;;9.93;;
9288;SDS011;4683;50.864;12.086;2023-09-08T06:50:07;10.93;;;9.83;;
9288;SDS011;4683;50.864;12.086;2023-09-08T06:52:36;10.47;;;9.40;;
9288;SDS011;4683;50.864;12.086;2023-09-08T06:55:05;10.40;;;9.07;;
9288;SDS011;4683;50.864;12.086;2023-09-08T07:01:42;11.43;;;9.77;;
9288;SDS011;4683;50.864;12.086;2023-09-08T07:04:10;12.07;;;10.90;;
9288;SDS011;4683;50.864;12.086;2023-09-08T07:06:40;11.00;;;9.53;;
9288;SDS011;4683;50.864;12.086;2023-09-08T07:09:11;11.07;;;9.97;;
9288;SDS011;4683;50.864;12.086;2023-09-08T07:11:41;10.60;;;9.50;;
9288;SDS011;4683;50.864;12.086;2023-09-08T07:14:11;12.10;;;9.90;;
9288;SDS011;4683;50.864;12.086;2023-09-08T07:16:42;11.73;;;10.53;;
9288;SDS011;4683;50.864;12.086;2023-09-08T07:19:32;10.30;;;9.30;;
9288;SDS011;4683;50.864;12.086;2023-09-08T07:22:20;11.00;;;9.93;;
9288;SDS011;4683;50.864;12.086;2023-09-08T07:24:49;12.50;;;9.47;;
9288;SDS011;4683;50.864;12.086;2023-09-08T07:27:18;12.20;;;10.83;;
9288;SDS011;4683;50.864;12.086;2023-09-08T07:29:47;13.93;;;9.97;;
9288;SDS011;4683;50.864;12.086;2023-09-08T07:32:17;10.57;;;9.57;;
9288;SDS011;4683;50.864;12.086;2023-09-08T07:34:49;10.40;;;9.33;;
9288;SDS011;4683;50.864;12.086;2023-09-08T07:37:24;11.10;;;10.10;;
9288;SDS011;4683;50.864;12.086;2023-09-08T07:39:53;10.77;;;9.43;;
9288;SDS011;4683;50.864;12.086;2023-09-08T07:42:21;9.97;;;9.07;;
9288;SDS011;4683;50.864;12.086;2023-09-08T07:44:51;9.60;;;8.80;;
9288;SDS011;4683;50.864;12.086;2023-09-08T07:47:21;9.70;;;8.73;;
9288;SDS011;4683;50.864;12.086;2023-09-08T07:49:53;9.67;;;8.63;;
9288;SDS011;4683;50.864;12.086;2023-09-08T07:52:49;9.70;;;8.70;;
9288;SDS011;4683;50.864;12.086;2023-09-08T07:55:22;10.07;;;9.03;;
9288;SDS011;4683;50.864;12.086;2023-09-08T07:57:53;8.70;;;7.87;;
9288;SDS011;4683;50.864;12.086;2023-09-08T08:00:23;8.93;;;8.13;;
9288;SDS011;4683;50.864;12.086;2023-09-08T08:02:54;8.10;;;7.37;;
9288;SDS011;4683;50.864;12.086;2023-09-08T08:05:25;9.13;;;8.23;;
9288;SDS011;4683;50.864;12.086;2023-09-08T08:07:55;9.23;;;8.37;;
9288;SDS011;4683;50.864;12.086;2023-09-08T08:10:26;8.77;;;7.90;;
9288;SDS011;4683;50.864;12.086;2023-09-08T08:12:54;10.87;;;8.33;;
9288;SDS011;4683;50.864;12.086;2023-09-08T08:15:33;9.63;;;8.67;;
9288;SDS011;4683;50.864;12.086;2023-09-08T08:18:03;9.90;;;7.87;;
9288;SDS011;4683;50.864;12.086;2023-09-08T08:20:35;8.57;;;7.67;;
9288;SDS011;4683;50.864;12.086;2023-09-08T08:23:06;8.20;;;7.50;;
9288;SDS011;4683;50.864;12.086;2023-09-08T08:25:39;7.67;;;6.90;;
9288;SDS011;4683;50.864;12.086;2023-09-08T08:28:07;7.07;;;6.47;;
9288;SDS011;4683;50.864;12.086;2023-09-08T08:30:36;7.73;;;7.03;;
9288;SDS011;4683;50.864;12.086;2023-09-08T08:33:05;7.27;;;6.70;;
9288;SDS011;4683;50.864;12.086;2023-09-08T08:35:53;8.27;;;7.40;;
9288;SDS011;4683;50.864;12.086;2023-09-08T08:38:24;7.27;;;6.57;;
9288;SDS011;4683;50.864;12.086;2023-09-08T08:40:53;7.57;;;6.53;;
9288;SDS011;4683;50.864;12.086;2023-09-08T08:43:22;7.10;;;6.50;;
9288;SDS011;4683;50.864;12.086;2023-09-08T08:46:02;7.20;;;6.57;;
9288;SDS011;4683;50.864;12.086;2023-09-08T08:48:32;7.47;;;6.70;;
9288;SDS011;4683;50.864;12.086;2023-09-08T08:51:03;7.67;;;6.97;;
9288;SDS011;4683;50.864;12.086;2023-09-08T08:53:33;7.33;;;6.63;;
9288;SDS011;4683;50.864;12.086;2023-09-08T08:56:04;7.53;;;6.47;;
9288;SDS011;4683;50.864;12.086;2023-09-08T08:58:35;7.17;;;6.23;;
9288;SDS011;4683;50.864;12.086;2023-09-08T09:01:06;6.93;;;5.73;;
9288;SDS011;4683;50.864;12.086;2023-09-08T09:03:38;7.90;;;5.87;;
9288;SDS011;4683;50.864;12.086;2023-09-08T09:06:09;6.70;;;6.10;;
9288;SDS011;4683;50.864;12.086;2023-09-08T09:08:43;7.00;;;6.30;;
9288;SDS011;4683;50.864;12.086;2023-09-08T09:11:13;7.00;;;6.30;;
9288;SDS011;4683;50.864;12.086;2023-09-08T09:13:43;6.50;;;5.93;;
9288;SDS011;4683;50.864;12.086;2023-09-08T09:16:12;6.30;;;5.73;;
9288;SDS011;4683;50.864;12.086;2023-09-08T09:21:41;7.23;;;5.80;;
9288;SDS011;4683;50.864;12.086;2023-09-08T09:24:14;6.07;;;5.47;;
9288;SDS011;4683;50.864;12.086;2023-09-08T09:26:51;6.03;;;5.50;;
9288;SDS011;4683;50.864;12.086;2023-09-08T09:29:22;6.50;;;5.90;;
9288;SDS011;4683;50.864;12.086;2023-09-08T09:31:51;5.80;;;5.30;;
9288;SDS011;4683;50.864;12.086;2023-09-08T09:34:20;6.00;;;5.33;;
9288;SDS011;4683;50.864;12.086;2023-09-08T09:36:50;8.23;;;5.43;;
9288;SDS011;4683;50.864;12.086;2023-09-08T09:39:21;7.70;;;5.60;;
9288;SDS011;4683;50.864;12.086;2023-09-08T09:41:53;6.20;;;5.70;;
9288;SDS011;4683;50.864;12.086;2023-09-08T09:44:49;5.97;;;4.70;;
9288;SDS011;4683;50.864;12.086;2023-09-08T09:47:44;4.97;;;4.57;;
9288;SDS011;4683;50.864;12.086;2023-09-08T09:50:13;5.07;;;4.30;;
9288;SDS011;4683;50.864;12.086;2023-09-08T09:52:42;5.27;;;4.83;;
9288;SDS011;4683;50.864;12.086;2023-09-08T09:55:16;6.60;;;4.93;;
9288;SDS011;4683;50.864;12.086;2023-09-08T09:57:46;8.20;;;5.10;;
9288;SDS011;4683;50.864;12.086;2023-09-08T10:00:17;4.77;;;4.37;;
9288;SDS011;4683;50.864;12.086;2023-09-08T10:02:46;6.70;;;4.63;;
9288;SDS011;4683;50.864;12.086;2023-09-08T10:05:15;5.10;;;4.60;;
9288;SDS011;4683;50.864;12.086;2023-09-08T10:07:44;5.50;;;4.90;;
9288;SDS011;4683;50.864;12.086;2023-09-08T10:10:24;6.57;;;5.97;;
9288;SDS011;4683;50.864;12.086;2023-09-08T10:13:12;5.33;;;4.73;;
9288;SDS011;4683;50.864;12.086;2023-09-08T10:15:47;4.80;;;4.40;;
9288;SDS011;4683;50.864;12.086;2023-09-08T10:18:18;5.03;;;4.47;;
9288;SDS011;4683;50.864;12.086;2023-09-08T10:20:48;5.17;;;4.60;;
9288;SDS011;4683;50.864;12.086;2023-09-08T10:23:31;5.37;;;4.77;;
9288;SDS011;4683;50.864;12.086;2023-09-08T10:26:11;5.37;;;4.87;;
9288;SDS011;4683;50.864;12.086;2023-09-08T10:28:43;5.53;;;5.03;;
9288;SDS011;4683;50.864;12.086;2023-09-08T10:31:12;4.80;;;4.40;;
9288;SDS011;4683;50.864;12.086;2023-09-08T10:33:42;5.97;;;5.30;;
9288;SDS011;4683;50.864;12.086;2023-09-08T10:36:12;4.80;;;4.40;;
9288;SDS011;4683;50.864;12.086;2023-09-08T10:38:41;5.13;;;4.73;;
9288;SDS011;4683;50.864;12.086;2023-09-08T10:41:28;5.20;;;4.70;;
9288;SDS011;4683;50.864;12.086;2023-09-08T10:43:59;5.73;;;4.93;;
9288;SDS011;4683;50.864;12.086;2023-09-08T10:46:35;5.97;;;4.40;;
9288;SDS011;4683;50.864;12.086;2023-09-08T10:49:05;5.60;;;4.90;;
9288;SDS011;4683;50.864;12.086;2023-09-08T10:51:36;5.37;;;4.87;;
9288;SDS011;4683;50.864;12.086;2023-09-08T10:54:05;5.67;;;4.73;;
9288;SDS011;4683;50.864;12.086;2023-09-08T10:56:53;5.47;;;5.00;;
9288;SDS011;4683;50.864;12.086;2023-09-08T10:59:27;4.97;;;4.57;;
9288;SDS011;4683;50.864;12.086;2023-09-08T11:01:58;5.07;;;4.57;;
9288;SDS011;4683;50.864;12.086;2023-09-08T11:04:33;5.30;;;4.90;;
9288;SDS011;4683;50.864;12.086;2023-09-08T11:07:04;6.20;;;5.00;;
9288;SDS011;4683;50.864;12.086;2023-09-08T11:09:35;5.73;;;5.00;;
9288;SDS011;4683;50.864;12.086;2023-09-08T11:12:06;5.33;;;4.83;;
9288;SDS011;4683;50.864;12.086;2023-09-08T11:14:35;4.80;;;4.37;;
9288;SDS011;4683;50.864;12.086;2023-09-08T11:17:03;5.20;;;4.40;;
9288;SDS011;4683;50.864;12.086;2023-09-08T11:19:42;4.73;;;4.33;;
9288;SDS011;4683;50.864;12.086;2023-09-08T11:22:14;5.10;;;4.60;;
9288;SDS011;4683;50.864;12.086;2023-09-08T11:24:44;6.03;;;4.70;;
9288;SDS011;4683;50.864;12.086;2023-09-08T11:27:14;5.47;;;4.90;;
9288;SDS011;4683;50.864;12.086;2023-09-08T11:29:43;5.50;;;5.00;;
9288;SDS011;4683;50.864;12.086;2023-09-08T11:32:12;4.70;;;4.40;;
9288;SDS011;4683;50.864;12.086;2023-09-08T11:34:41;5.97;;;4.87;;
9288;SDS011;4683;50.864;12.086;2023-09-08T11:37:11;5.47;;;4.93;;
9288;SDS011;4683;50.864;12.086;2023-09-08T11:40:08;7.13;;;4.77;;
9288;SDS011;4683;50.864;12.086;2023-09-08T11:42:46;6.00;;;5.00;;
9288;SDS011;4683;50.864;12.086;2023-09-08T11:45:15;5.90;;;4.40;;
9288;SDS011;4683;50.864;12.086;2023-09-08T11:47:48;6.03;;;4.83;;
9288;SDS011;4683;50.864;12.086;2023-09-08T11:50:18;5.93;;;4.43;;
9288;SDS011;4683;50.864;12.086;2023-09-08T11:52:52;4.67;;;4.27;;
9288;SDS011;4683;50.864;12.086;2023-09-08T11:55:22;4.63;;;4.23;;
9288;SDS011;4683;50.864;12.086;2023-09-08T11:57:57;5.37;;;4.67;;
9288;SDS011;4683;50.864;12.086;2023-09-08T12:00:27;5.30;;;4.80;;
9288;SDS011;4683;50.864;12.086;2023-09-08T12:03:08;5.20;;;4.63;;
9288;SDS011;4683;50.864;12.086;2023-09-08T12:05:39;4.60;;;4.20;;
9288;SDS011;4683;50.864;12.086;2023-09-08T12:08:12;4.73;;;4.20;;
9288;SDS011;4683;50.864;12.086;2023-09-08T12:10:41;5.37;;;4.90;;
9288;SDS011;4683;50.864;12.086;2023-09-08T12:13:12;4.87;;;4.37;;
9288;SDS011;4683;50.864;12.086;2023-09-08T12:15:47;4.83;;;4.43;;
9288;SDS011;4683;50.864;12.086;2023-09-08T12:18:16;4.87;;;4.20;;
9288;SDS011;4683;50.864;12.086;2023-09-08T12:20:44;5.23;;;4.73;;
9288;SDS011;4683;50.864;12.086;2023-09-08T12:23:30;6.83;;;5.63;;
9288;SDS011;4683;50.864;12.086;2023-09-08T12:26:00;5.40;;;4.90;;
9288;SDS011;4683;50.864;12.086;2023-09-08T12:28:39;7.90;;;5.00;;
9288;SDS011;4683;50.864;12.086;2023-09-08T12:31:09;4.60;;;4.20;;
9288;SDS011;4683;50.864;12.086;2023-09-08T12:33:46;5.03;;;4.07;;
9288;SDS011;4683;50.864;12.086;2023-09-08T12:36:37;4.50;;;4.20;;
9288;SDS011;4683;50.864;12.086;2023-09-08T12:39:12;5.23;;;4.23;;
9288;SDS011;4683;50.864;12.086;2023-09-08T12:41:46;4.47;;;4.00;;
9288;SDS011;4683;50.864;12.086;2023-09-08T12:44:17;5.10;;;4.60;;
9288;SDS011;4683;50.864;12.086;2023-09-08T12:46:48;5.40;;;4.90;;
9288;SDS011;4683;50.864;12.086;2023-09-08T12:49:20;5.30;;;4.80;;
9288;SDS011;4683;50.864;12.086;2023-09-08T12:51:49;4.80;;;4.40;;
9288;SDS011;4683;50.864;12.086;2023-09-08T12:54:18;4.70;;;4.20;;
9288;SDS011;4683;50.864;12.086;2023-09-08T12:56:47;5.40;;;4.87;;
9288;SDS011;4683;50.864;12.086;2023-09-08T12:59:18;5.23;;;4.83;;
9288;SDS011;4683;50.864;12.086;2023-09-08T13:02:06;5.20;;;4.80;;
9288;SDS011;4683;50.864;12.086;2023-09-08T13:04:56;5.40;;;4.43;;
9288;SDS011;4683;50.864;12.086;2023-09-08T13:07:31;6.47;;;5.13;;
9288;SDS011;4683;50.864;12.086;2023-09-08T13:10:02;6.20;;;5.70;;
9288;SDS011;4683;50.864;12.086;2023-09-08T13:12:32;4.93;;;4.50;;
9288;SDS011;4683;50.864;12.086;2023-09-08T13:15:02;6.40;;;4.60;;
9288;SDS011;4683;50.864;12.086;2023-09-08T13:17:34;6.23;;;4.43;;
9288;SDS011;4683;50.864;12.086;2023-09-08T13:20:04;5.63;;;4.50;;
9288;SDS011;4683;50.864;12.086;2023-09-08T13:22:34;7.03;;;4.63;;
9288;SDS011;4683;50.864;12.086;2023-09-08T13:25:05;4.80;;;4.40;;
9288;SDS011;4683;50.864;12.086;2023-09-08T13:27:34;4.93;;;4.40;;
9288;SDS011;4683;50.864;12.086;2023-09-08T13:30:13;5.13;;;4.63;;
9288;SDS011;4683;50.864;12.086;2023-09-08T13:32:44;6.43;;;5.10;;
9288;SDS011;4683;50.864;12.086;2023-09-08T13:35:14;6.50;;;4.90;;
9288;SDS011;4683;50.864;12.086;2023-09-08T13:37:42;6.07;;;5.20;;
9288;SDS011;4683;50.864;12.086;2023-09-08T13:40:11;5.30;;;4.80;;
9288;SDS011;4683;50.864;12.086;2023-09-08T13:42:40;7.63;;;4.43;;
9288;SDS011;4683;50.864;12.086;2023-09-08T13:45:35;4.57;;;4.17;;
9288;SDS011;4683;50.864;12.086;2023-09-08T13:48:14;5.13;;;4.63;;
9288;SDS011;4683;50.864;12.086;2023-09-08T13:50:42;4.90;;;4.50;;
9288;SDS011;4683;50.864;12.086;2023-09-08T13:53:11;5.90;;;4.40;;
9288;SDS011;4683;50.864;12.086;2023-09-08T13:55:40;5.07;;;4.67;;
9288;SDS011;4683;50.864;12.086;2023-09-08T13:58:10;4.77;;;4.37;;
9288;SDS011;4683;50.864;12.086;2023-09-08T14:00:40;5.50;;;4.80;;
9288;SDS011;4683;50.864;12.086;2023-09-08T14:03:08;5.53;;;4.40;;
9288;SDS011;4683;50.864;12.086;2023-09-08T14:05:38;5.67;;;4.87;;
9288;SDS011;4683;50.864;12.086;2023-09-08T14:08:32;5.47;;;4.50;;
9288;SDS011;4683;50.864;12.086;2023-09-08T14:11:00;4.47;;;4.17;;
9288;SDS011;4683;50.864;12.086;2023-09-08T14:13:29;5.40;;;4.90;;
9288;SDS011;4683;50.864;12.086;2023-09-08T14:15:59;5.30;;;4.90;;
9288;SDS011;4683;50.864;12.086;2023-09-08T14:18:28;4.47;;;4.07;;
9288;SDS011;4683;50.864;12.086;2023-09-08T14:21:14;4.90;;;4.50;;
9288;SDS011;4683;50.864;12.086;2023-09-08T14:23:44;4.40;;;4.00;;
9288;SDS011;4683;50.864;12.086;2023-09-08T14:26:28;5.10;;;4.43;;
9288;SDS011;4683;50.864;12.086;2023-09-08T14:28:56;4.70;;;4.30;;
9288;SDS011;4683;50.864;12.086;2023-09-08T14:31:28;5.40;;;4.83;;
9288;SDS011;4683;50.864;12.086;2023-09-08T14:33:57;5.23;;;4.77;;
9288;SDS011;4683;50.864;12.086;2023-09-08T14:36:29;4.63;;;4.27;;
9288;SDS011;4683;50.864;12.086;2023-09-08T14:38:58;5.23;;;4.70;;
9288;SDS011;4683;50.864;12.086;2023-09-08T14:41:30;6.93;;;4.63;;
9288;SDS011;4683;50.864;12.086;2023-09-08T14:44:05;5.80;;;5.20;;
9288;SDS011;4683;50.864;12.086;2023-09-08T14:46:35;5.20;;;4.80;;
9288;SDS011;4683;50.864;12.086;2023-09-08T14:49:07;5.33;;;4.83;;
9288;SDS011;4683;50.864;12.086;2023-09-08T14:51:35;7.03;;;4.90;;
9288;SDS011;4683;50.864;12.086;2023-09-08T14:54:05;6.67;;;4.40;;
9288;SDS011;4683;50.864;12.086;2023-09-08T14:56:33;4.87;;;4.33;;
9288;SDS011;4683;50.864;12.086;2023-09-08T14:59:03;7.07;;;4.53;;
9288;SDS011;4683;50.864;12.086;2023-09-08T15:01:31;5.47;;;4.70;;
9288;SDS011;4683;50.864;12.086;2023-09-08T15:04:04;6.17;;;4.77;;
9288;SDS011;4683;50.864;12.086;2023-09-08T15:06:34;5.27;;;4.80;;
9288;SDS011;4683;50.864;12.086;2023-09-08T15:09:04;6.40;;;4.50;;
9288;SDS011;4683;50.864;12.086;2023-09-08T15:11:32;6.33;;;4.73;;
9288;SDS011;4683;50.864;12.086;2023-09-08T15:14:00;6.27;;;4.33;;
9288;SDS011;4683;50.864;12.086;2023-09-08T15:16:30;4.87;;;4.37;;
9288;SDS011;4683;50.864;12.086;2023-09-08T15:19:00;5.50;;;4.83;;
9288;SDS011;4683;50.864;12.086;2023-09-08T15:21:30;5.07;;;4.67;;
9288;SDS011;4683;50.864;12.086;2023-09-08T15:23:59;5.47;;;4.97;;
9288;SDS011;4683;50.864;12.086;2023-09-08T15:26:39;6.27;;;5.10;;
9288;SDS011;4683;50.864;12.086;2023-09-08T15:29:12;4.97;;;4.57;;
9288;SDS011;4683;50.864;12.086;2023-09-08T15:31:42;5.17;;;4.70;;
9288;SDS011;4683;50.864;12.086;2023-09-08T15:34:20;4.83;;;4.40;;
9288;SDS011;4683;50.864;12.086;2023-09-08T15:36:49;6.00;;;5.40;;
9288;SDS011;4683;50.864;12.086;2023-09-08T15:39:27;5.87;;;5.37;;
9288;SDS011;4683;50.864;12.086;2023-09-08T15:41:55;4.37;;;4.07;;
9288;SDS011;4683;50.864;12.086;2023-09-08T15:44:24;4.90;;;4.37;;